Time;durP1;ratioP1;P1;durP2;ratioP2;P2;SDS_P1;SDS_P2;PMS_P1;PMS_P2;Temp;Humidity;BMP_temperature;BMP_pressure;BME280_temperature;BME280_humidity;BME280_pressure;Samples;Min_cycle;Max_cycle;Signal;HPM_P1;HPM_P2
2022/06/09 00:01:58;;;;;;;4.95;2.67;;;16.30;99.90;;;;;;5032044;28;20414;-46
2022/06/09 00:04:39;;;;;;;3.75;2.72;;;16.30;99.90;;;;;;5032270;28;20053;-46
2022/06/09 00:07:15;;;;;;;4.75;2.40;;;16.30;99.90;;;;;;5030732;28;20498;-47
2022/06/09 00:09:46;;;;;;;3.72;2.47;;;16.40;99.90;;;;;;5031445;28;20116;-47
2022/06/09 00:12:12;;;;;;;6.53;2.78;;;16.40;99.90;;;;;;5032000;28;20036;-47
2022/06/09 00:14:38;;;;;;;4.55;2.40;;;16.40;99.90;;;;;;5031822;28;20017;-48
2022/06/09 00:17:05;;;;;;;7.28;2.83;;;16.30;99.90;;;;;;5016666;28;20142;-48
2022/06/09 00:19:31;;;;;;;3.30;2.50;;;16.30;99.90;;;;;;5011699;28;20034;-46
2022/06/09 00:21:57;;;;;;;6.85;2.25;;;16.30;99.90;;;;;;5012082;28;20495;-48
2022/06/09 00:24:23;;;;;;;6.40;2.63;;;16.20;99.90;;;;;;5010810;28;20066;-48
2022/06/09 00:26:48;;;;;;;9.55;2.88;;;16.10;99.90;;;;;;5011995;28;20232;-47
2022/06/09 00:29:14;;;;;;;9.45;2.63;;;16.00;99.90;;;;;;5011736;28;20395;-46
2022/06/09 00:31:39;;;;;;;6.80;2.47;;;16.00;99.90;;;;;;5011642;28;20022;-47
2022/06/09 00:34:05;;;;;;;4.88;3.13;;;16.00;99.90;;;;;;5011830;28;20030;-49
2022/06/09 00:36:30;;;;;;;4.82;2.17;;;15.90;99.90;;;;;;5011825;28;20446;-47
2022/06/09 00:38:57;;;;;;;7.68;2.30;;;15.90;99.90;;;;;;5011727;28;20564;-46
2022/06/09 00:41:26;;;;;;;4.07;2.42;;;16.00;99.90;;;;;;5011483;28;20478;-49
2022/06/09 00:43:52;;;;;;;6.95;2.78;;;16.00;99.90;;;;;;5025368;28;20033;-46
2022/06/09 00:46:27;;;;;;;8.25;2.78;;;16.00;99.90;;;;;;5021725;28;20036;-48
2022/06/09 00:49:01;;;;;;;5.35;2.65;;;16.10;99.90;;;;;;5011689;28;20096;-46
2022/06/09 00:51:49;;;;;;;6.45;2.42;;;16.10;99.90;;;;;;5010870;28;20034;-48
2022/06/09 00:54:23;;;;;;;7.05;2.90;;;16.00;99.90;;;;;;5011786;28;20033;-47
2022/06/09 00:56:55;;;;;;;5.20;2.65;;;16.00;99.90;;;;;;5011757;28;20072;-47
2022/06/09 00:59:22;;;;;;;6.35;3.25;;;16.00;99.90;;;;;;4993093;28;20163;-47
2022/06/09 01:01:48;;;;;;;5.40;3.15;;;16.10;99.90;;;;;;5010692;28;20121;-50
2022/06/09 01:04:17;;;;;;;7.25;2.85;;;16.10;99.90;;;;;;5011533;28;20030;-48
2022/06/09 01:07:08;;;;;;;4.90;3.03;;;16.10;99.90;;;;;;5011297;28;20034;-47
2022/06/09 01:09:34;;;;;;;6.70;2.97;;;16.10;99.90;;;;;;5005428;28;20045;-47
2022/06/09 01:12:00;;;;;;;10.23;3.15;;;16.10;99.90;;;;;;5010948;28;20038;-47
2022/06/09 01:14:31;;;;;;;5.28;2.72;;;16.10;99.90;;;;;;5029092;28;20040;-46
2022/06/09 01:17:11;;;;;;;5.15;3.10;;;16.10;99.90;;;;;;5016099;28;20026;-47
2022/06/09 01:20:02;;;;;;;6.83;2.97;;;16.10;99.90;;;;;;5010738;28;20105;-46
2022/06/09 01:23:01;;;;;;;8.23;3.10;;;16.10;99.90;;;;;;5010972;28;20265;-46
2022/06/09 01:26:01;;;;;;;5.85;2.92;;;16.00;99.90;;;;;;5009597;28;20026;-49
2022/06/09 01:28:41;;;;;;;8.48;3.20;;;15.90;99.90;;;;;;5010773;28;20030;-46
2022/06/09 01:31:21;;;;;;;8.88;3.25;;;15.90;99.90;;;;;;5010156;28;20057;-45
2022/06/09 01:34:09;;;;;;;6.85;3.40;;;15.80;99.90;;;;;;5011037;28;20018;-46
2022/06/09 01:36:42;;;;;;;8.43;3.70;;;15.80;99.90;;;;;;5009726;28;20030;-48
2022/06/09 01:39:08;;;;;;;5.72;3.28;;;15.80;99.90;;;;;;5010528;28;20104;-47
2022/06/09 01:41:35;;;;;;;6.90;3.15;;;15.80;99.90;;;;;;5009941;28;20037;-48
2022/06/09 01:44:02;;;;;;;6.20;2.95;;;15.80;99.90;;;;;;5025448;28;20478;-46
2022/06/09 01:46:33;;;;;;;7.53;4.30;;;15.80;99.90;;;;;;5019538;28;20036;-46
2022/06/09 01:49:10;;;;;;;8.63;3.90;;;15.70;99.90;;;;;;5010629;28;20026;-46
2022/06/09 01:51:39;;;;;;;7.82;3.50;;;15.70;99.90;;;;;;5009592;28;20252;-48
2022/06/09 01:54:13;;;;;;;7.18;3.65;;;15.70;99.90;;;;;;5010451;28;20364;-47
2022/06/09 01:56:51;;;;;;;9.20;3.63;;;15.70;99.90;;;;;;5010321;28;20026;-49
2022/06/09 01:59:28;;;;;;;10.80;3.28;;;15.60;99.90;;;;;;5009965;28;20026;-48
2022/06/09 02:02:02;;;;;;;10.85;4.13;;;15.70;99.90;;;;;;5009935;28;20022;-47
2022/06/09 02:04:34;;;;;;;8.00;3.75;;;15.70;99.90;;;;;;5010011;28;20041;-46
2022/06/09 02:07:03;;;;;;;4.70;3.25;;;15.70;99.90;;;;;;5010067;28;20030;-47
2022/06/09 02:09:32;;;;;;;5.78;3.53;;;15.70;99.90;;;;;;5009707;28;20111;-47
2022/06/09 02:12:03;;;;;;;12.48;3.45;;;15.70;99.90;;;;;;5008634;28;20399;-48
2022/06/09 02:14:30;;;;;;;10.48;3.85;;;15.70;99.90;;;;;;5028324;28;20039;-49
2022/06/09 02:16:57;;;;;;;9.23;4.35;;;15.60;99.90;;;;;;5015279;28;20474;-47
2022/06/09 02:19:23;;;;;;;6.03;3.63;;;15.60;99.90;;;;;;5009765;28;20476;-49
2022/06/09 02:21:49;;;;;;;4.75;3.58;;;15.60;99.90;;;;;;5009393;28;20040;-46
2022/06/09 02:24:15;;;;;;;7.30;4.07;;;15.60;99.90;;;;;;5009655;28;20112;-49
2022/06/09 02:26:40;;;;;;;9.05;3.85;;;15.60;99.90;;;;;;5009705;28;20113;-47
2022/06/09 02:29:06;;;;;;;8.95;3.42;;;15.60;99.90;;;;;;5009518;28;20053;-47
2022/06/09 02:31:32;;;;;;;6.22;3.60;;;15.60;99.90;;;;;;5007853;28;20021;-47
2022/06/09 02:33:57;;;;;;;10.82;4.43;;;15.60;99.90;;;;;;5009840;28;20109;-47
2022/06/09 02:36:24;;;;;;;7.20;4.00;;;15.60;99.90;;;;;;5009586;28;20037;-46
2022/06/09 02:38:49;;;;;;;6.75;3.72;;;15.50;99.90;;;;;;5009663;28;20029;-47
2022/06/09 02:41:16;;;;;;;9.43;4.38;;;15.50;99.90;;;;;;5008914;28;20022;-47
2022/06/09 02:43:42;;;;;;;8.65;4.53;;;15.50;99.90;;;;;;5020225;28;20049;-48
2022/06/09 02:46:07;;;;;;;7.85;4.70;;;15.50;99.90;;;;;;5020889;28;20529;-45
2022/06/09 02:48:33;;;;;;;5.28;3.42;;;15.40;99.90;;;;;;5009340;28;20030;-45
2022/06/09 02:51:14;;;;;;;6.18;4.63;;;15.40;99.90;;;;;;5008783;28;20033;-47
2022/06/09 02:53:39;;;;;;;;;;;15.50;99.90;;;;;;5009847;28;20033;-48
2022/06/09 02:56:05;;;;;;;7.70;4.93;;;15.50;99.90;;;;;;5009291;28;19956;-48
2022/06/09 02:58:30;;;;;;;6.45;4.82;;;15.40;99.90;;;;;;5009187;28;20075;-47
2022/06/09 03:00:56;;;;;;;6.97;4.63;;;15.40;99.90;;;;;;5008290;28;20030;-46
2022/06/09 03:03:21;;;;;;;6.85;5.18;;;15.40;99.90;;;;;;5009232;28;20361;-46
2022/06/09 03:05:47;;;;;;;13.77;5.85;;;15.40;99.90;;;;;;5009013;28;20058;-46
2022/06/09 03:08:13;;;;;;;9.82;5.43;;;15.40;99.90;;;;;;5009124;28;20269;-47
2022/06/09 03:10:38;;;;;;;6.18;5.15;;;15.40;99.90;;;;;;5008451;28;20026;-48
2022/06/09 03:13:06;;;;;;;9.00;5.07;;;15.40;99.90;;;;;;5016780;28;20475;-47
2022/06/09 03:15:32;;;;;;;7.03;5.43;;;15.40;99.90;;;;;;5025043;28;20026;-46
2022/06/09 03:17:58;;;;;;;7.40;5.63;;;15.40;99.90;;;;;;5009058;28;20049;-47
2022/06/09 03:20:26;;;;;;;8.30;5.90;;;15.30;99.90;;;;;;5008537;28;20042;-48
2022/06/09 03:22:52;;;;;;;7.93;5.43;;;15.30;99.90;;;;;;5008867;28;20540;-47
2022/06/09 03:25:17;;;;;;;9.30;5.60;;;15.40;99.90;;;;;;5009013;28;20219;-47
2022/06/09 03:27:43;;;;;;;9.85;7.20;;;15.40;99.90;;;;;;5008655;28;20033;-46
2022/06/09 03:30:10;;;;;;;13.50;6.60;;;15.30;99.90;;;;;;5008266;28;20219;-47
2022/06/09 03:32:35;;;;;;;11.48;6.68;;;15.40;99.90;;;;;;5009982;28;20034;-47
2022/06/09 03:35:01;;;;;;;8.20;6.10;;;15.40;99.90;;;;;;5015307;28;20316;-48
2022/06/09 03:37:26;;;;;;;14.05;7.65;;;15.40;99.90;;;;;;5015280;28;20041;-46
2022/06/09 03:39:52;;;;;;;11.80;7.22;;;15.40;99.90;;;;;;5021619;28;20492;-46
2022/06/09 03:42:18;;;;;;;12.15;7.38;;;15.40;99.90;;;;;;5035082;28;20155;-45
2022/06/09 03:44:46;;;;;;;13.98;7.18;;;15.40;99.90;;;;;;5034481;28;20044;-46
2022/06/09 03:47:11;;;;;;;9.90;7.10;;;15.40;99.90;;;;;;5034606;28;20026;-49
2022/06/09 03:49:37;;;;;;;12.35;7.18;;;15.40;99.90;;;;;;5032806;28;20048;-46
2022/06/09 03:52:03;;;;;;;10.77;7.78;;;15.40;99.90;;;;;;5033321;28;20175;-47
2022/06/09 03:54:29;;;;;;;14.52;8.40;;;15.40;99.90;;;;;;5034469;28;20506;-50
2022/06/09 03:56:54;;;;;;;15.75;9.25;;;15.40;99.90;;;;;;5034603;28;20498;-46
2022/06/09 03:59:20;;;;;;;12.10;8.45;;;15.40;99.90;;;;;;5034552;28;20052;-47
2022/06/09 04:01:45;;;;;;;9.27;7.55;;;15.40;99.90;;;;;;5032819;28;20314;-46
2022/06/09 04:04:11;;;;;;;14.07;7.78;;;15.40;99.90;;;;;;5033668;28;20033;-48
2022/06/09 04:06:36;;;;;;;16.88;9.13;;;15.40;99.90;;;;;;5033413;28;20026;-46
2022/06/09 04:09:04;;;;;;;16.30;9.73;;;15.40;99.90;;;;;;5034633;28;20438;-45
2022/06/09 04:11:30;;;;;;;13.63;9.35;;;15.50;99.90;;;;;;5034178;28;20037;-46
2022/06/09 04:13:55;;;;;;;14.48;9.48;;;15.50;99.90;;;;;;5033143;28;20595;-47
2022/06/09 04:16:25;;;;;;;14.77;9.82;;;15.50;99.90;;;;;;5024803;28;20124;-45
2022/06/09 04:18:56;;;;;;;15.57;8.93;;;15.50;99.90;;;;;;5015046;28;20071;-46
2022/06/09 04:21:22;;;;;;;14.65;9.65;;;15.60;99.90;;;;;;5014932;28;20121;-46
2022/06/09 04:23:48;;;;;;;15.38;8.23;;;15.60;99.90;;;;;;5015507;28;20032;-49
2022/06/09 04:26:17;;;;;;;15.70;9.48;;;15.70;99.90;;;;;;5014992;28;20132;-47
2022/06/09 04:28:44;;;;;;;10.38;8.43;;;15.70;99.90;;;;;;5015025;28;20022;-49
2022/06/09 04:31:11;;;;;;;12.65;8.85;;;15.90;99.90;;;;;;5014146;28;20018;-47
2022/06/09 04:33:37;;;;;;;13.00;9.80;;;15.90;99.90;;;;;;5015174;28;20486;-46
2022/06/09 04:36:03;;;;;;;16.38;9.60;;;15.90;99.90;;;;;;5014255;28;20025;-47
2022/06/09 04:38:28;;;;;;;14.77;9.05;;;15.90;99.90;;;;;;5014826;28;20593;-47
2022/06/09 04:40:54;;;;;;;14.55;10.95;;;15.90;99.90;;;;;;5014187;28;20105;-50
2022/06/09 04:43:20;;;;;;;14.23;8.77;;;15.90;99.90;;;;;;5024401;28;20045;-48
2022/06/09 04:45:46;;;;;;;15.38;10.32;;;15.90;99.90;;;;;;5025037;28;20475;-50
2022/06/09 04:48:11;;;;;;;18.23;10.25;;;16.00;99.90;;;;;;5011647;28;20030;-47
2022/06/09 04:50:38;;;;;;;15.98;10.65;;;16.10;99.90;;;;;;5010889;28;20028;-49
2022/06/09 04:53:05;;;;;;;17.75;10.13;;;16.10;99.90;;;;;;5010210;28;20161;-47
2022/06/09 04:55:30;;;;;;;23.00;11.50;;;16.20;99.90;;;;;;5011808;28;20399;-48
2022/06/09 04:57:56;;;;;;;13.85;9.88;;;16.20;99.90;;;;;;5014426;28;20051;-46
2022/06/09 05:00:22;;;;;;;21.38;10.85;;;16.30;99.90;;;;;;5029875;28;20075;-47
2022/06/09 05:02:47;;;;;;;23.02;12.85;;;16.30;99.90;;;;;;5028998;28;20037;-48
2022/06/09 05:05:21;;;;;;;16.50;11.95;;;16.30;99.90;;;;;;5030611;28;20379;-47
2022/06/09 05:07:47;;;;;;;17.25;11.32;;;16.30;99.90;;;;;;5029610;28;20144;-47
2022/06/09 05:10:13;;;;;;;19.83;11.02;;;16.30;99.90;;;;;;5030160;28;20546;-46
2022/06/09 05:12:38;;;;;;;20.85;11.43;;;16.30;99.90;;;;;;5027726;28;20028;-49
2022/06/09 05:15:05;;;;;;;17.35;10.23;;;16.30;99.90;;;;;;5025296;28;20060;-47
2022/06/09 05:17:31;;;;;;;17.60;10.32;;;16.30;99.90;;;;;;5024307;28;20056;-47
2022/06/09 05:19:56;;;;;;;18.90;10.63;;;16.40;99.90;;;;;;5022784;28;20276;-49
2022/06/09 05:22:22;;;;;;;15.57;10.23;;;16.40;99.90;;;;;;5030200;28;20049;-49
2022/06/09 05:24:48;;;;;;;17.70;10.00;;;16.40;99.90;;;;;;5030003;28;20049;-46
2022/06/09 05:27:14;;;;;;;19.45;12.23;;;16.50;99.90;;;;;;5029131;28;20036;-49
2022/06/09 05:29:41;;;;;;;15.95;10.07;;;16.50;99.90;;;;;;5026144;28;20116;-49
2022/06/09 05:32:07;;;;;;;21.08;11.48;;;16.60;99.90;;;;;;5025262;28;20413;-48
2022/06/09 05:34:33;;;;;;;16.67;10.63;;;16.40;99.90;;;;;;5029656;28;20094;-46
2022/06/09 05:36:59;;;;;;;22.45;11.45;;;16.50;99.90;;;;;;5029896;28;20120;-47
2022/06/09 05:44:56;;;;;;;16.65;11.00;;;16.60;99.90;;;;;;5019158;28;20065;-48
2022/06/09 05:47:23;;;;;;;21.02;12.30;;;16.60;99.90;;;;;;5018822;28;20030;-48
2022/06/09 05:49:51;;;;;;;16.88;11.15;;;16.70;99.90;;;;;;5022850;28;20022;-46
2022/06/09 05:52:18;;;;;;;17.45;11.23;;;16.70;99.90;;;;;;5012427;28;20636;-49
2022/06/09 05:54:43;;;;;;;17.30;11.25;;;16.80;99.90;;;;;;5024411;28;20117;-47
2022/06/09 05:57:09;;;;;;;21.58;13.15;;;16.80;99.90;;;;;;5010043;28;20157;-46
2022/06/09 05:59:35;;;;;;;20.60;13.00;;;16.80;99.90;;;;;;5014520;28;20030;-48
2022/06/09 06:02:01;;;;;;;22.23;12.70;;;16.80;99.90;;;;;;5023378;28;20097;-50
2022/06/09 06:04:26;;;;;;;19.17;13.65;;;16.80;99.90;;;;;;5012846;28;20483;-47
2022/06/09 06:06:52;;;;;;;18.63;12.52;;;16.80;99.90;;;;;;5028005;28;20072;-47
2022/06/09 06:09:21;;;;;;;25.45;15.30;;;16.90;99.90;;;;;;5029735;28;20025;-47
2022/06/09 06:11:47;;;;;;;24.23;13.30;;;17.10;99.90;;;;;;5029273;28;20402;-47
2022/06/09 06:14:14;;;;;;;19.73;12.38;;;17.00;99.90;;;;;;5029042;28;20440;-48
2022/06/09 06:16:40;;;;;;;27.92;15.15;;;17.10;99.90;;;;;;5028812;28;20033;-47
2022/06/09 06:19:08;;;;;;;19.55;11.77;;;17.10;99.90;;;;;;5029308;28;20029;-50
2022/06/09 06:21:35;;;;;;;21.67;12.02;;;17.20;99.90;;;;;;5028330;28;20029;-46
2022/06/09 06:24:01;;;;;;;25.35;12.25;;;17.40;99.90;;;;;;5021805;28;20029;-48
2022/06/09 06:26:27;;;;;;;20.23;12.75;;;17.40;99.90;;;;;;5028814;28;20033;-49
2022/06/09 06:28:53;;;;;;;16.67;10.55;;;17.40;99.90;;;;;;5029154;28;20734;-50
2022/06/09 06:31:19;;;;;;;19.15;10.98;;;17.40;99.90;;;;;;5011745;28;20037;-48
2022/06/09 06:33:44;;;;;;;17.58;11.60;;;17.40;99.90;;;;;;5029163;28;20033;-47
2022/06/09 06:36:10;;;;;;;22.17;11.20;;;17.50;99.90;;;;;;5018745;28;20292;-49
2022/06/09 06:38:37;;;;;;;28.00;12.07;;;17.60;99.90;;;;;;5023379;28;20100;-50
2022/06/09 06:41:05;;;;;;;20.48;11.43;;;17.50;99.90;;;;;;5011914;28;20088;-48
2022/06/09 06:43:30;;;;;;;18.48;11.82;;;17.60;99.90;;;;;;5028747;28;20022;-48
2022/06/09 06:45:56;;;;;;;20.13;12.32;;;17.60;99.90;;;;;;5015691;28;20033;-50
2022/06/09 06:48:21;;;;;;;15.25;10.27;;;17.50;99.90;;;;;;5021032;28;20025;-50
2022/06/09 06:50:47;;;;;;;22.27;11.05;;;17.60;99.90;;;;;;5021804;28;20486;-50
2022/06/09 06:53:13;;;;;;;22.35;13.20;;;17.50;99.90;;;;;;5019458;28;20060;-50
2022/06/09 06:55:39;;;;;;;23.42;13.05;;;17.40;99.90;;;;;;5018011;28;20018;-46
2022/06/09 06:58:05;;;;;;;24.38;13.00;;;17.30;99.90;;;;;;5017031;28;20480;-49
2022/06/09 07:00:31;;;;;;;17.13;11.02;;;17.20;99.90;;;;;;5018569;28;20120;-48
2022/06/09 07:02:56;;;;;;;22.05;13.02;;;17.20;99.90;;;;;;5017871;28;20140;-50
2022/06/09 07:05:22;;;;;;;16.67;9.98;;;17.30;99.90;;;;;;5022028;28;20388;-49
2022/06/09 07:07:49;;;;;;;21.30;11.63;;;17.30;99.90;;;;;;5027515;28;20041;-46
2022/06/09 07:10:15;;;;;;;22.02;13.88;;;17.20;99.90;;;;;;5027737;28;20068;-49
2022/06/09 07:12:41;;;;;;;17.30;11.48;;;17.10;99.90;;;;;;5028038;28;20045;-47
2022/06/09 07:15:09;;;;;;;22.55;12.85;;;17.10;99.90;;;;;;5024933;28;20053;-50
2022/06/09 07:17:35;;;;;;;24.35;12.98;;;17.20;99.90;;;;;;5019869;28;20169;-46
2022/06/09 07:20:00;;;;;;;23.85;13.55;;;17.20;99.90;;;;;;5024756;28;20025;-47
2022/06/09 07:22:25;;;;;;;23.83;12.60;;;17.20;99.90;;;;;;5025627;28;20040;-46
2022/06/09 07:24:55;;;;;;;18.30;11.75;;;17.30;99.90;;;;;;5025999;28;20459;-49
2022/06/09 07:27:22;;;;;;;20.23;13.15;;;17.40;99.90;;;;;;5021947;28;20143;-48
2022/06/09 07:29:48;;;;;;;22.30;12.40;;;17.40;99.90;;;;;;5025330;28;20041;-48
2022/06/09 07:32:13;;;;;;;18.10;10.85;;;17.40;99.90;;;;;;5028036;28;20082;-50
2022/06/09 07:34:39;;;;;;;21.33;13.52;;;17.40;99.90;;;;;;5024236;28;20138;-49
2022/06/09 07:37:05;;;;;;;17.80;10.60;;;17.40;99.90;;;;;;5028290;28;20410;-45
2022/06/09 07:39:31;;;;;;;21.20;12.27;;;17.40;99.90;;;;;;5027451;28;20029;-46
2022/06/09 07:41:56;;;;;;;26.13;13.68;;;17.30;99.90;;;;;;5028072;28;20426;-46
2022/06/09 07:44:22;;;;;;;15.30;10.70;;;17.30;99.90;;;;;;5027558;28;20033;-46
2022/06/09 07:46:47;;;;;;;15.57;10.93;;;17.40;99.90;;;;;;5012705;28;20026;-52
2022/06/09 07:49:13;;;;;;;21.63;13.23;;;17.40;99.90;;;;;;5008319;28;20464;-47
2022/06/09 07:51:40;;;;;;;22.42;13.30;;;17.40;99.90;;;;;;5007826;28;20022;-46
2022/06/09 07:54:06;;;;;;;20.05;13.40;;;17.50;99.90;;;;;;5006849;28;20030;-47
2022/06/09 07:56:32;;;;;;;23.42;15.00;;;17.50;99.90;;;;;;5008039;28;20103;-49
2022/06/09 07:59:00;;;;;;;21.60;15.15;;;17.50;99.90;;;;;;5008206;28;20424;-47
2022/06/09 08:01:25;;;;;;;23.05;14.73;;;17.50;99.90;;;;;;5006028;28;20026;-48
2022/06/09 08:03:51;;;;;;;25.75;15.30;;;17.40;99.90;;;;;;5004664;28;20032;-47
2022/06/09 08:06:16;;;;;;;23.33;14.45;;;17.50;99.90;;;;;;5026468;28;20033;-46
2022/06/09 08:08:42;;;;;;;25.00;16.08;;;17.50;99.90;;;;;;5045785;28;20036;-48
2022/06/09 08:11:09;;;;;;;23.35;14.68;;;17.50;99.90;;;;;;5046429;28;20035;-49
2022/06/09 08:13:36;;;;;;;25.85;16.05;;;17.40;99.90;;;;;;5034480;28;20506;-46
2022/06/09 08:16:03;;;;;;;24.73;15.57;;;17.50;99.90;;;;;;5018224;28;20038;-46
2022/06/09 08:18:29;;;;;;;24.17;15.45;;;17.50;99.90;;;;;;5008025;28;20023;-47
2022/06/09 08:20:56;;;;;;;20.92;13.48;;;17.60;99.90;;;;;;5006904;28;20487;-48
2022/06/09 08:23:24;;;;;;;20.75;13.82;;;17.70;99.90;;;;;;5009829;28;20049;-49
2022/06/09 08:25:53;;;;;;;25.65;14.82;;;17.80;99.90;;;;;;5014499;28;20065;-49
2022/06/09 08:28:20;;;;;;;22.95;13.75;;;17.80;99.90;;;;;;5030861;28;20072;-47
2022/06/09 08:30:48;;;;;;;22.70;13.85;;;17.80;99.90;;;;;;5028978;28;20044;-47
2022/06/09 08:33:14;;;;;;;19.90;11.55;;;17.80;99.90;;;;;;5030672;28;20105;-48
2022/06/09 08:35:40;;;;;;;18.50;11.38;;;17.90;99.90;;;;;;5027736;28;20040;-47
2022/06/09 08:38:06;;;;;;;16.95;10.68;;;17.90;99.90;;;;;;5029371;28;20482;-46
2022/06/09 08:40:36;;;;;;;18.67;11.40;;;18.10;99.90;;;;;;5029821;28;20034;-48
2022/06/09 08:43:24;;;;;;;16.08;9.82;;;18.30;99.90;;;;;;5030902;28;20025;-45
2022/06/09 08:45:53;;;;;;;16.88;9.52;;;18.40;99.90;;;;;;5022886;28;20056;-46
2022/06/09 08:48:22;;;;;;;11.75;8.48;;;18.30;99.90;;;;;;5030393;28;20486;-46
2022/06/09 08:51:12;;;;;;;13.90;9.10;;;18.50;99.90;;;;;;5030291;28;20525;-47
2022/06/09 08:53:44;;;;;;;;;;;18.80;99.90;;;;;;5031383;28;20029;-47
2022/06/09 08:56:21;;;;;;;21.02;10.48;;;19.10;99.90;;;;;;5030628;28;19959;-49
2022/06/09 08:58:54;;;;;;;17.83;8.57;;;19.20;99.90;;;;;;5029624;28;20022;-46
2022/06/09 09:01:33;;;;;;;16.75;8.57;;;19.00;99.90;;;;;;5027238;28;20030;-47
2022/06/09 09:04:11;;;;;;;17.92;10.00;;;19.00;99.90;;;;;;5030476;28;20025;-47
2022/06/09 09:06:56;;;;;;;17.00;9.48;;;18.80;99.90;;;;;;5030477;28;20032;-46
2022/06/09 09:09:28;;;;;;;17.38;10.63;;;18.70;99.90;;;;;;5030009;28;20108;-47
2022/06/09 09:12:07;;;;;;;12.57;9.15;;;18.50;99.90;;;;;;5030054;28;20024;-48
2022/06/09 09:14:36;;;;;;;17.17;10.48;;;18.30;99.90;;;;;;5027948;28;20053;-47
2022/06/09 09:17:09;;;;;;;15.45;11.02;;;18.20;99.90;;;;;;5029758;28;20021;-46
2022/06/09 09:19:43;;;;;;;15.77;9.93;;;18.20;99.90;;;;;;5029567;28;20510;-46
2022/06/09 09:22:23;;;;;;;17.38;12.07;;;18.20;99.90;;;;;;5030189;28;20033;-46
2022/06/09 09:25:17;;;;;;;18.40;10.20;;;18.40;99.90;;;;;;5030278;28;20060;-48
2022/06/09 09:27:42;;;;;;;17.77;10.60;;;18.60;99.90;;;;;;5030037;28;20280;-47
2022/06/09 09:30:24;;;;;;;14.70;10.40;;;19.00;99.90;;;;;;5028479;28;20120;-49
2022/06/09 09:32:54;;;;;;;12.45;9.13;;;19.30;99.90;;;;;;5030348;28;20475;-48
2022/06/09 09:35:23;;;;;;;16.80;10.68;;;19.50;99.90;;;;;;5029789;28;20509;-47
2022/06/09 09:37:52;;;;;;;14.15;9.38;;;19.60;99.90;;;;;;5029571;28;20044;-46
2022/06/09 09:40:43;;;;;;;15.30;8.77;;;19.50;99.90;;;;;;5029162;28;20070;-47
2022/06/09 09:43:13;;;;;;;13.07;8.85;;;19.40;99.90;;;;;;5029755;28;20033;-47
2022/06/09 09:45:42;;;;;;;14.07;8.73;;;19.20;99.90;;;;;;5023660;28;20022;-46
2022/06/09 09:48:34;;;;;;;12.77;9.70;;;19.20;99.90;;;;;;5015054;28;20032;-47
2022/06/09 09:51:10;;;;;;;11.27;8.38;;;19.60;99.90;;;;;;5021941;28;20022;-50
2022/06/09 09:53:40;;;;;;;11.65;8.50;;;19.80;99.90;;;;;;5026215;28;20272;-49
2022/06/09 09:56:34;;;;;;;16.52;9.07;;;20.00;99.90;;;;;;5027166;28;20021;-48
2022/06/09 09:59:03;;;;;;;12.63;7.85;;;20.00;99.90;;;;;;5028759;28;20087;-46
2022/06/09 10:01:34;;;;;;;14.55;7.53;;;20.00;99.90;;;;;;5028583;28;20733;-47
2022/06/09 10:09:47;;;;;;;8.70;6.05;;;19.40;99.90;;;;;;5028169;28;20647;-46
2022/06/09 10:12:23;;;;;;;10.57;6.20;;;19.50;99.90;;;;;;5027226;28;20032;-47
2022/06/09 10:14:52;;;;;;;8.20;6.22;;;19.80;99.90;;;;;;5023227;28;20041;-48
2022/06/09 10:17:36;;;;;;;12.30;7.60;;;19.80;99.90;;;;;;5026894;28;20022;-48
2022/06/09 10:20:37;;;;;;;11.65;6.45;;;19.70;99.90;;;;;;5028595;28;20108;-46
2022/06/09 10:23:15;;;;;;;12.23;6.63;;;19.80;99.90;;;;;;5027837;28;20025;-48
2022/06/09 10:26:18;;;;;;;11.77;6.80;;;19.80;99.90;;;;;;5028411;28;20033;-47
2022/06/09 10:29:06;;;;;;;6.88;5.35;;;20.10;99.90;;;;;;5021968;28;20025;-46
2022/06/09 10:32:01;;;;;;;11.15;4.65;;;20.50;99.90;;;;;;5027987;28;20037;-47
2022/06/09 10:34:26;;;;;;;11.25;6.30;;;21.00;99.90;;;;;;5009387;28;20117;-47
2022/06/09 10:37:14;;;;;;;8.73;4.40;;;22.10;99.90;;;;;;5009016;28;20120;-49
2022/06/09 10:39:55;;;;;;;6.95;4.10;;;23.70;99.60;;;;;;5008680;28;20018;-47
2022/06/09 10:42:33;;;;;;;7.38;4.75;;;24.90;95.40;;;;;;5008334;28;20344;-45
2022/06/09 10:45:34;;;;;;;8.52;4.85;;;24.60;93.20;;;;;;5023492;28;20022;-48
2022/06/09 10:57:23;;;;;;;6.97;3.50;;;26.00;91.80;;;;;;5025460;28;20201;-49
2022/06/09 10:59:52;;;;;;;5.30;3.03;;;25.30;91.60;;;;;;5025599;28;20026;-47
2022/06/09 11:02:21;;;;;;;5.55;3.80;;;24.80;91.30;;;;;;5028194;28;20048;-50
2022/06/09 11:04:47;;;;;;;7.07;3.33;;;24.90;91.20;;;;;;5028444;28;20036;-48
2022/06/09 11:07:36;;;;;;;6.07;3.40;;;25.00;91.20;;;;;;5028040;28;20072;-49
2022/06/09 11:10:20;;;;;;;9.13;4.07;;;24.50;91.20;;;;;;5027731;28;20036;-49
2022/06/09 11:13:09;;;;;;;10.13;4.38;;;24.10;91.50;;;;;;5028455;28;20021;-50
2022/06/09 11:15:43;;;;;;;9.80;4.13;;;23.60;91.60;;;;;;5027851;28;20030;-49
2022/06/09 11:18:15;;;;;;;5.93;3.05;;;23.70;91.60;;;;;;5026991;28;20637;-50
2022/06/09 11:21:08;;;;;;;7.40;3.92;;;24.60;91.70;;;;;;5027293;28;20037;-50
2022/06/09 11:24:07;;;;;;;7.43;2.85;;;25.50;86.70;;;;;;5028253;28;20083;-49
2022/06/09 11:26:57;;;;;;;5.37;2.53;;;26.00;83.70;;;;;;5027526;28;20244;-51
2022/06/09 11:30:01;;;;;;;4.93;2.80;;;27.30;79.90;;;;;;5022985;28;20476;-50
2022/06/09 11:32:35;;;;;;;7.05;2.55;;;28.20;77.00;;;;;;5024281;28;20026;-48
2022/06/09 11:35:12;;;;;;;7.50;2.60;;;28.80;74.40;;;;;;5024145;28;20024;-49
2022/06/09 11:37:50;;;;;;;3.53;2.03;;;28.70;72.80;;;;;;5025760;28;20043;-48
2022/06/09 11:40:57;;;;;;;5.57;3.03;;;28.10;73.90;;;;;;5023453;28;20028;-51
2022/06/09 11:43:35;;;;;;;5.75;2.30;;;27.80;74.60;;;;;;5026246;28;20022;-51
2022/06/09 11:46:03;;;;;;;7.00;2.90;;;27.10;73.90;;;;;;5024472;28;20075;-50
2022/06/09 11:48:35;;;;;;;4.88;2.30;;;26.30;76.00;;;;;;5027594;28;20116;-51
2022/06/09 11:51:02;;;;;;;6.90;2.95;;;25.90;79.00;;;;;;5026738;28;20056;-50
2022/06/09 11:53:31;;;;;;;7.72;3.00;;;26.40;78.30;;;;;;5027656;28;20014;-51
2022/06/09 11:56:33;;;;;;;4.00;2.60;;;26.10;78.30;;;;;;5031776;28;20029;-49
2022/06/09 11:59:11;;;;;;;12.23;3.25;;;25.60;78.50;;;;;;5030507;28;20112;-51
2022/06/09 12:01:40;;;;;;;6.80;2.65;;;24.90;78.70;;;;;;5029236;28;20025;-48
2022/06/09 12:04:54;;;;;;;6.70;2.03;;;24.40;80.20;;;;;;5031833;28;20063;-51
2022/06/09 12:07:35;;;;;;;6.63;2.92;;;23.90;83.50;;;;;;5031466;28;20057;-50
2022/06/09 12:10:19;;;;;;;6.45;3.00;;;23.40;86.00;;;;;;5029884;28;20026;-50
2022/06/09 12:13:04;;;;;;;10.73;3.55;;;23.00;86.50;;;;;;5030329;28;20499;-49
2022/06/09 12:15:47;;;;;;;5.53;2.58;;;22.70;86.90;;;;;;5028278;28;20367;-50
2022/06/09 12:18:17;;;;;;;5.47;2.83;;;22.50;88.40;;;;;;5028836;28;20116;-50
2022/06/09 12:21:06;;;;;;;7.35;3.33;;;22.60;89.30;;;;;;5030757;28;20109;-49
2022/06/09 12:23:36;;;;;;;7.40;3.05;;;22.40;89.10;;;;;;5030187;28;20030;-51
2022/06/09 12:26:16;;;;;;;7.40;3.20;;;22.20;90.00;;;;;;5031755;28;20030;-50
2022/06/09 12:28:52;;;;;;;12.35;3.20;;;22.10;90.80;;;;;;5025950;28;20057;-49
2022/06/09 12:31:23;;;;;;;4.60;3.15;;;22.10;91.10;;;;;;5020745;28;20018;-48
2022/06/09 12:34:11;;;;;;;5.45;3.10;;;22.20;90.10;;;;;;5030336;28;20057;-47
2022/06/09 12:36:58;;;;;;;8.75;2.53;;;22.20;90.50;;;;;;5030563;28;20472;-48
2022/06/09 12:39:25;;;;;;;6.35;2.90;;;22.20;90.30;;;;;;5029634;28;20052;-49
2022/06/09 12:42:02;;;;;;;3.03;2.40;;;22.10;90.30;;;;;;5030145;28;20545;-47
2022/06/09 12:44:36;;;;;;;6.75;2.70;;;22.00;90.10;;;;;;5030351;28;20021;-47
2022/06/09 12:47:16;;;;;;;4.25;2.45;;;21.90;90.20;;;;;;5028256;28;20477;-47
2022/06/09 12:49:43;;;;;;;5.63;3.00;;;21.90;90.60;;;;;;5029716;28;20033;-47
2022/06/09 12:52:32;;;;;;;5.03;2.85;;;22.00;91.30;;;;;;5029346;28;20048;-49
2022/06/09 12:55:28;;;;;;;4.43;2.80;;;22.30;91.20;;;;;;5030985;28;20097;-50
2022/06/09 12:58:17;;;;;;;5.75;2.40;;;22.30;91.30;;;;;;5021280;28;20034;-47
2022/06/09 13:00:54;;;;;;;6.50;2.70;;;22.20;91.00;;;;;;5008809;28;20331;-49
2022/06/09 13:03:31;;;;;;;5.95;2.88;;;22.10;90.50;;;;;;5013483;28;20034;-49
2022/06/09 13:06:20;;;;;;;6.70;3.65;;;21.80;90.80;;;;;;5028931;28;20018;-47
2022/06/09 13:08:49;;;;;;;6.95;3.45;;;21.30;90.60;;;;;;5026528;28;20033;-47
2022/06/09 13:12:50;;;;;;;6.20;3.38;;;21.10;91.00;;;;;;5029802;28;20267;-50
2022/06/09 13:14:09;;;;;;;8.13;3.85;;;20.80;91.40;;;;;;5029932;28;20025;-47
2022/06/09 13:16:39;;;;;;;6.80;3.47;;;20.70;91.70;;;;;;5028670;28;20714;-50
2022/06/09 13:19:06;;;;;;;7.77;3.10;;;20.60;91.90;;;;;;5030153;28;20644;-49
2022/06/09 13:21:38;;;;;;;4.50;2.78;;;20.50;92.60;;;;;;5029654;28;20086;-49